地図

経路データ

SID SEASON NUMBER BASIN SUBBASIN NAME ISO_TIME NATURE LAT LON WMO_WIND WMO_PRES WMO_AGENCY TRACK_TYPE DIST2LAND LANDFALL IFLAG USA_AGENCY USA_ATCF_ID USA_LAT USA_LON USA_RECORD USA_STATUS USA_WIND USA_PRES USA_SSHS USA_R34_NE USA_R34_SE USA_R34_SW USA_R34_NW USA_R50_NE USA_R50_SE USA_R50_SW USA_R50_NW USA_R64_NE USA_R64_SE USA_R64_SW USA_R64_NW USA_POCI USA_ROCI USA_RMW USA_EYE TOKYO_LAT TOKYO_LON TOKYO_GRADE TOKYO_WIND TOKYO_PRES TOKYO_R50_DIR TOKYO_R50_LONG TOKYO_R50_SHORT TOKYO_R30_DIR TOKYO_R30_LONG TOKYO_R30_SHORT TOKYO_LAND CMA_LAT CMA_LON CMA_CAT CMA_WIND CMA_PRES HKO_LAT HKO_LON HKO_CAT HKO_WIND HKO_PRES NEWDELHI_LAT NEWDELHI_LON NEWDELHI_GRADE NEWDELHI_WIND NEWDELHI_PRES NEWDELHI_CI NEWDELHI_DP NEWDELHI_POCI REUNION_LAT REUNION_LON REUNION_TYPE REUNION_WIND REUNION_PRES REUNION_TNUM REUNION_CI REUNION_RMW REUNION_R34_NE REUNION_R34_SE REUNION_R34_SW REUNION_R34_NW REUNION_R50_NE REUNION_R50_SE REUNION_R50_SW REUNION_R50_NW REUNION_R64_NE REUNION_R64_SE REUNION_R64_SW REUNION_R64_NW BOM_LAT BOM_LON BOM_TYPE BOM_WIND BOM_PRES BOM_TNUM BOM_CI BOM_RMW BOM_R34_NE BOM_R34_SE BOM_R34_SW BOM_R34_NW BOM_R50_NE BOM_R50_SE BOM_R50_SW BOM_R50_NW BOM_R64_NE BOM_R64_SE BOM_R64_SW BOM_R64_NW BOM_ROCI BOM_POCI BOM_EYE BOM_POS_METHOD BOM_PRES_METHOD NADI_LAT NADI_LON NADI_CAT NADI_WIND NADI_PRES WELLINGTON_LAT WELLINGTON_LON WELLINGTON_WIND WELLINGTON_PRES DS824_LAT DS824_LON DS824_STAGE DS824_WIND DS824_PRES TD9636_LAT TD9636_LON TD9636_STAGE TD9636_WIND TD9636_PRES TD9635_LAT TD9635_LON TD9635_WIND TD9635_PRES TD9635_ROCI NEUMANN_LAT NEUMANN_LON NEUMANN_CLASS NEUMANN_WIND NEUMANN_PRES MLC_LAT MLC_LON MLC_CLASS MLC_WIND MLC_PRES USA_GUST BOM_GUST BOM_GUST_PER REUNION_GUST REUNION_GUST_PER USA_SEAHGT USA_SEARAD_NE USA_SEARAD_SE USA_SEARAD_SW USA_SEARAD_NW STORM_SPEED STORM_DIR
1997333N06194 1997 111 EP CP PAKA- 1997-11-28 18:00:00 TS 5.60000 193.700 20 hurdat_epa main 1881 1856 O_____________ hurdat_epa CP051997 5.60000 -166.300 TD 20 -1 4 35
1997333N06194 1997 111 EP CP PAKA- 1997-11-28 21:00:00 TS 5.76251 193.812 main 1856 1841 P_____________ CP051997 5.76251 -166.188 TD 22 -1 4 33
1997333N06194 1997 111 EP CP PAKA- 1997-11-29 00:00:00 TS 5.90000 193.900 25 hurdat_epa main 1841 1832 O_____________ hurdat_epa CP051997 5.90000 -166.100 TD 25 -1 3 30
1997333N06194 1997 111 EP CP PAKA- 1997-11-29 03:00:00 TS 5.99999 193.950 main 1825 1816 P_____________ CP051997 5.99999 -166.050 TD 25 -1 2 27
1997333N06194 1997 111 EP CP PAKA- 1997-11-29 06:00:00 TS 6.10000 194.000 25 hurdat_epa main 1816 1800 O_____________ hurdat_epa CP051997 6.10000 -166.000 TD 25 -1 3 30
1997333N06194 1997 111 EP CP PAKA- 1997-11-29 09:00:00 TS 6.24250 194.085 main 1800 1776 P_____________ CP051997 6.24250 -165.915 TD 25 -1 4 33
1997333N06194 1997 111 EP CP PAKA- 1997-11-29 12:00:00 TS 6.40000 194.200 25 hurdat_epa main 1776 1760 O_____________ hurdat_epa CP051997 6.40000 -165.800 TD 25 -1 4 41
1997333N06194 1997 111 EP CP PAKA- 1997-11-29 15:00:00 TS 6.54251 194.350 main 1760 1729 P_____________ CP051997 6.54251 -165.650 TD 25 -1 4 45
1997333N06194 1997 111 EP CP PAKA- 1997-11-29 18:00:00 TS 6.70000 194.500 25 hurdat_epa main 1729 1705 O_____________ hurdat_epa CP051997 6.70000 -165.500 TD 25 -1 4 36
1997333N06194 1997 111 EP CP PAKA- 1997-11-29 21:00:00 TS 6.90000 194.615 main 1705 1680 P_____________ CP051997 6.90000 -165.385 TD 25 -1 4 26
1997333N06194 1997 111 EP CP PAKA- 1997-11-30 00:00:00 TS 7.10000 194.700 25 hurdat_epa main 1680 1664 O_____________ hurdat_epa CP051997 7.10000 -165.300 TD 25 -1 4 23
1997333N06194 1997 111 EP CP PAKA- 1997-11-30 03:00:00 TS 7.25750 194.765 main 1655 1647 P_____________ CP051997 7.25750 -165.235 TD 25 -1 3 17
1997333N06194 1997 111 EP CP PAKA- 1997-11-30 06:00:00 TS 7.40000 194.800 25 hurdat_epa main 1647 1629 O_____________ hurdat_epa CP051997 7.40000 -165.200 TD 25 -1 3 9
1997333N06194 1997 111 EP CP PAKA- 1997-11-30 09:00:00 TS 7.56500 194.815 main 1629 1620 P_____________ CP051997 7.56500 -165.185 TD 25 -1 3 0
1997333N06194 1997 111 EP CP PAKA- 1997-11-30 12:00:00 TS 7.70000 194.800 25 hurdat_epa main 1620 1611 O_____________ hurdat_epa CP051997 7.70000 -165.200 TD 25 -1 2 343
1997333N06194 1997 111 EP CP PAKA- 1997-11-30 15:00:00 TS 7.76500 194.757 main 1611 1611 P_____________ CP051997 7.76500 -165.243 TD 25 -1 1 317
1997333N06194 1997 111 EP CP PAKA- 1997-11-30 18:00:00 TS 7.80000 194.700 25 hurdat_epa main 1618 1618 O_____________ hurdat_epa CP051997 7.80000 -165.300 TD 25 -1 1 310
1997333N06194 1997 111 EP CP PAKA- 1997-11-30 21:00:00 TS 7.85000 194.657 main 1610 1610 P_____________ CP051997 7.85000 -165.343 TD 25 -1 1 317
1997333N06194 1997 111 EP CP PAKA- 1997-12-01 00:00:00 TS 7.90000 194.600 25 hurdat_epa main 1617 1615 O_____________ hurdat_epa CP051997 7.90000 -165.400 TD 25 -1 2 308
1997333N06194 1997 111 EP CP PAKA- 1997-12-01 03:00:00 TS 7.95777 194.514 main 1615 1615 P_____________ CP051997 7.95750 -165.485 TD 27 -1 2 297
1997333N06194 1997 111 EP CP PAKA- 1997-12-01 06:00:00 TS 8.00000 194.400 30 hurdat_epa main 1622 1622 O_____________ hurdat_epa CP051997 8.00000 -165.600 TD 30 -1 3 281
1997333N06194 1997 111 EP CP PAKA- 1997-12-01 09:00:00 TS 8.00749 194.265 main 1629 1629 P_____________ CP051997 8.00749 -165.735 TD 30 -1 3 270
1997333N06194 1997 111 EP CP PAKA- 1997-12-01 12:00:00 TS 8.00000 194.100 30 hurdat_epa main 1644 1644 O_____________ hurdat_epa CP051997 8.00000 -165.900 TD 30 -1 4 269
1997333N06194 1997 111 EP CP PAKA- 1997-12-01 15:00:00 TS 8.00000 193.908 main 1658 1658 P_____________ CP051997 8.00000 -166.092 TD 30 -1 4 270
1997333N06194 1997 111 EP CP PAKA- 1997-12-01 18:00:00 TS 8.00000 193.700 30 hurdat_epa main 1673 1673 O_____________ hurdat_epa CP051997 8.00000 -166.300 TD 30 -1 4 270
1997333N06194 1997 111 EP CP PAKA- 1997-12-01 21:00:00 TS 7.99999 193.500 main 1688 1688 P_____________ CP051997 7.99999 -166.500 TD 30 -1 4 270
1997333N06194 1997 111 EP CP PAKA- 1997-12-02 00:00:00 TS 8.00000 193.300 30 hurdat_epa main 1703 1703 O_____________ hurdat_epa CP051997 8.00000 -166.700 TD 30 -1 4 270
1997333N06194 1997 111 EP CP PAKA- 1997-12-02 03:00:00 TS 8.00001 193.077 main 1718 1718 P_____________ CP051997 8.00001 -166.923 TD 32 -1 4 270
1997333N06194 1997 111 EP CP PAKA- 1997-12-02 06:00:00 TS 8.00000 192.900 35 hurdat_epa main 1733 1733 O_____________ hurdat_epa CP051997 8.00000 -167.100 TS 35 0 2 268
1997333N06194 1997 111 EP CP PAKA- 1997-12-02 09:00:00 TS 7.99248 192.827 main 1741 1741 P_____________ CP051997 7.99248 -167.173 TS 37 0 1 270
1997333N06194 1997 111 EP CP PAKA- 1997-12-02 12:00:00 TS 8.00000 192.800 40 hurdat_epa main 1741 1741 O_____________ hurdat_epa CP051997 8.00000 -167.200 TS 40 0 1 306
1997333N06194 1997 111 EP CP PAKA- 1997-12-02 15:00:00 TS 8.05000 192.750 main 1733 1740 P_____________ CP051997 8.05000 -167.250 TS 42 0 1 317
1997333N06194 1997 111 EP CP PAKA- 1997-12-02 18:00:00 TS 8.10000 192.700 45 hurdat_epa main 1740 1740 O_____________ hurdat_epa CP051997 8.10000 -167.300 TS 45 0 1 301
1997333N06194 1997 111 EP CP PAKA- 1997-12-02 21:00:00 TS 8.10750 192.653 main 1740 1740 P_____________ CP051997 8.10750 -167.350 TS 45 0 1 270
1997333N06194 1997 111 EP CP PAKA- 1997-12-03 00:00:00 TS 8.10000 192.600 45 hurdat_epa main 1748 1748 O_____________ hurdat_epa CP051997 8.10000 -167.400 TS 45 0 1 266
1997333N06194 1997 111 EP CP PAKA- 1997-12-03 03:00:00 TS 8.09850 192.532 main 1756 1756 P_____________ CP051997 8.10000 -167.450 TS 47 0 1 270
1997333N06194 1997 111 EP CP PAKA- 1997-12-03 06:00:00 TS 8.10000 192.460 50 hurdat_epa main 1756 1756 O_____________ hurdat_epa CP051997 8.10000 -167.500 TS 50 0 1 272
1997333N06194 1997 111 EP CP PAKA- 1997-12-03 09:00:00 TS 8.10249 192.409 main 1763 1763 P_____________ CP051997 8.09250 -167.543 TS 52 0 1 280
1997333N06194 1997 111 EP CP PAKA- 1997-12-03 12:00:00 TS 8.12000 192.340 55 hurdat_epa main 1770 1761 O_____________ hurdat_epa CP051997 8.10000 -167.600 TS 55 0 2 289
1997333N06194 1997 111 EP CP PAKA- 1997-12-03 15:00:00 TS 8.16099 192.234 main 1766 1766 P_____________ CP051997 8.14249 -167.678 TS 55 0 3 291
1997333N06194 1997 111 EP CP PAKA- 1997-12-03 18:00:00 TS 8.22000 192.080 55 hurdat_epa main 1771 1766 O_____________ hurdat_epa CP051997 8.20000 -167.800 TS 55 0 4 290
1997333N06194 1997 111 EP CP PAKA- 1997-12-03 21:00:00 TS 8.29000 191.880 main 1772 1772 P_____________ CP051997 8.25000 -167.978 TS 55 0 5 288
1997333N06194 1997 111 EP CP PAKA- 1997-12-04 00:00:00 TS 8.36000 191.640 55 hurdat_epa main 1778 1778 O_____________ hurdat_epa CP051997 8.30000 -168.200 TS 55 0 5 285
1997333N06194 1997 111 EP CP PAKA- 1997-12-04 03:00:00 TS 8.41748 191.392 main 1790 1790 P_____________ CP051997 8.35748 -168.435 TS 55 0 5 281
1997333N06194 1997 111 EP CP PAKA- 1997-12-04 06:00:00 TS 8.46000 191.120 55 hurdat_epa main 1797 1797 O_____________ hurdat_epa CP051997 8.40000 -168.700 TS 55 0 6 277
1997333N06194 1997 111 EP CP PAKA- 1997-12-04 09:00:00 TS 8.48595 190.841 main 1815 1815 P_____________ CP051997 8.40745 -168.978 TS 52 0 6 274
1997333N06194 1997 111 EP CP PAKA- 1997-12-04 12:00:00 TS 8.50000 190.520 50 hurdat_epa main 1833 1833 O_____________ hurdat_epa CP051997 8.40000 -169.300 TS 50 0 7 273
1997333N06194 1997 111 EP CP PAKA- 1997-12-04 15:00:00 TS 8.51742 190.159 main 1851 1851 P_____________ CP051997 8.40739 -169.655 TS 50 0 8 271
1997333N06194 1997 111 EP CP PAKA- 1997-12-04 18:00:00 TS 8.52000 189.720 50 hurdat_epa main 1882 1882 O_____________ hurdat_epa CP051997 8.40000 -170.100 TS 50 0 10 269
1997333N06194 1997 111 EP CP PAKA- 1997-12-04 21:00:00 TS 8.49606 189.175 main 1915 1915 P_____________ CP051997 8.35759 -170.685 TS 50 0 11 267
1997333N06194 1997 111 EP CP PAKA- 1997-12-05 00:00:00 TS 8.46000 188.600 50 hurdat_epa main 1955 1955 O_____________ hurdat_epa CP051997 8.30000 -171.300 TS 50 0 11 267
1997333N06194 1997 111 EP CP PAKA- 1997-12-05 03:00:00 TS 8.43135 188.103 main 1998 1998 P_____________ CP051997 8.24982 -171.800 TS 50 0 10 267
1997333N06194 1997 111 EP CP PAKA- 1997-12-05 06:00:00 TS 8.40000 187.600 50 hurdat_epa main 2033 2033 O_____________ hurdat_epa CP051997 8.20000 -172.300 TS 50 0 10 267
1997333N06194 1997 111 EP CP PAKA- 1997-12-05 09:00:00 TS 8.36886 187.053 main 2069 2069 P_____________ CP051997 8.15736 -172.862 TS 47 0 12 266
1997333N06194 1997 111 EP CP PAKA- 1997-12-05 12:00:00 TS 8.32000 186.440 45 hurdat_epa main 2129 2129 O_____________ hurdat_epa CP051997 8.10000 -173.500 TS 45 0 13 264
1997333N06194 1997 111 EP CP PAKA- 1997-12-05 15:00:00 TS 8.23741 185.751 main 2182 2182 P_____________ CP051997 8.00739 -174.213 TS 45 0 14 263
1997333N06194 1997 111 EP CP PAKA- 1997-12-05 18:00:00 TS 8.14000 185.000 45 hurdat_epa main 2251 2251 O_____________ hurdat_epa CP051997 7.90000 -175.000 TS 45 0 16 263
1997333N06194 1997 111 EP CP PAKA- 1997-12-05 21:00:00 TS 8.04563 184.177 main 2322 2322 P_____________ CP051997 7.79269 -175.888 TS 42 0 16 263
1997333N06194 1997 111 EP CP PAKA- 1997-12-06 00:00:00 TS 7.96000 183.420 40 hurdat_epa main 2385 2385 O_____________ hurdat_epa CP051997 7.70000 -176.700 TS 40 0 13 263
1997333N06194 1997 111 EP CP PAKA- 1997-12-06 03:00:00 TS 7.89531 182.857 main 2434 2434 P_____________ CP051997 7.64228 -177.275 TS 37 0 10 263
1997333N06194 1997 111 EP CP PAKA- 1997-12-06 06:00:00 TS 7.84000 182.420 35 hurdat_epa main 2444 2444 O_____________ hurdat_epa CP051997 7.60000 -177.700 TS 35 0 8 262
1997333N06194 1997 111 EP CP PAKA- 1997-12-06 09:00:00 TS 7.77841 182.032 main 2454 2446 P_____________ CP051997 7.54991 -178.072 TS 35 0 7 261
1997333N06194 1997 111 EP CP PAKA- 1997-12-06 12:00:00 TS 7.72000 181.680 35 hurdat_epa main 2451 2451 O_____________ hurdat_epa CP051997 7.50000 -178.400 TS 35 0 7 261
1997333N06194 1997 111 EP CP PAKA- 1997-12-06 15:00:00 TS 7.66248 181.296 main 2463 2455 P_____________ CP051997 7.44249 -178.758 TS 37 0 8 259
1997333N06194 1997 111 EP CP PAKA- 1997-12-06 18:00:00 TS 7.57368 180.916 40 hurdat_epa main 2464 2456 O_____________ hurdat_epa CP051997 7.40000 -179.100 TS 40 0 7 258
1997333N06194 1997 111 EP CP PAKA- 1997-12-06 21:00:00 TS 7.51028 180.569 main 2463 2463 P_____________ CP051997 7.39249 -179.422 TS 42 0 6 260
1997333N06194 1997 111 EP CP PAKA- 1997-12-07 00:00:00 TS 7.45882 180.282 45 hurdat_epa main 2473 2466 O_____________ hurdat_epa CP051997 7.40000 -179.700 TS 45 0 5 257
1997333N06194 1997 111 EP CP PAKA- 1997-12-07 03:00:00 TS 7.39996 180.092 main 2469 2469 P_____________ CP051997 7.39996 -179.908 TS 47 0 4 261
1997333N06194 1997 111 WP MM PAKA- 1997-12-07 06:00:00 TS 7.40000 179.900 main 2476 2476 O_____________ hurdat_epa CP051997 7.40000 179.900 TS 50 0 4 270
1997333N06194 1997 111 WP MM PAKA- 1997-12-07 09:00:00 TS 7.39998 179.665 main 2483 2483 P_____________ CP051997 7.39998 179.665 TS 52 0 5 291
1997333N06194 1997 111 WP MM PAKA- 1997-12-07 12:00:00 TS 7.56111 179.467 main 2512 2512 OO_O__________ hurdat_epa CP051997 7.40000 179.400 TS 55 0 9.20000 180.600 7 35 994 0 9 90 90 0 8.50000 179.400 TS 35 998 5 301
1997333N06194 1997 111 WP MM PAKA- 1997-12-07 15:00:00 TS 7.67301 179.210 main 2534 2534 PP_P__________ CP051997 7.40748 179.115 TS 57 0 9.12016 -179.870 7 35 994 0 9 105 105 8.35007 179.047 TS 35 998 6 287
1997333N06194 1997 111 WP MM PAKA- 1997-12-07 18:00:00 TS 7.72727 178.909 35 994 tokyo main 2546 2546 OO_O__________ hurdat_epa CP051997 7.40000 178.800 TS 60 0 9.00000 179.700 3 35 994 0 9 120 120 0 8.20000 178.700 TS 35 998 6 275
1997333N06194 1997 111 WP MM PAKA- 1997-12-07 21:00:00 TS 7.72078 178.597 main 2558 2558 PP_P__________ CP051997 7.36495 178.473 TS 60 0 8.81492 179.335 3 35 994 0 9 120 120 8.04995 178.358 TS 35 998 7 261
1997333N06194 1997 111 WP MM PAKA- 1997-12-08 00:00:00 TS 7.61667 178.233 35 994 tokyo main 2564 2563 OO_O__________ hurdat_epa CP051997 7.30000 178.100 TS 60 0 8.60000 179.000 3 35 994 0 9 120 120 0 7.90000 178.000 TS 35 998 8 254
1997333N06194 1997 111 WP MM PAKA- 1997-12-08 03:00:00 TS 7.49793 177.812 main 2571 2554 PP_P__________ CP051997 7.20754 177.650 TS 57 0 8.40742 178.665 3 35 994 0 9 120 120 7.74998 177.608 TS 35 998 9 253
1997333N06194 1997 111 WP MM PAKA- 1997-12-08 06:00:00 TS 7.36667 177.383 35 994 tokyo main 2554 2507 OO_O__________ hurdat_epa CP051997 7.10000 177.200 TS 55 0 8.20000 178.300 3 35 994 0 9 120 120 0 7.60000 177.200 TS 35 998 8 251
1997333N06194 1997 111 WP MM PAKA- 1997-12-08 09:00:00 TS 7.23325 177.016 main 2507 2475 PP_P__________ CP051997 6.99988 176.858 TS 50 0 7.95750 177.865 3 37 993 0 9 135 135 7.44246 176.800 TS 35 998 8 250
1997333N06194 1997 111 WP MM PAKA- 1997-12-08 12:00:00 TS 7.10000 176.633 40 992 tokyo main 2467 2428 OO_O__________ hurdat_epa CP051997 6.90000 176.500 TS 45 0 7.70000 177.400 3 40 992 0 9 150 150 0 7.30000 176.400 TS 35 998 9 252
1997333N06194 1997 111 WP MM PAKA- 1997-12-08 15:00:00 TS 6.96500 176.172 main 2428 2381 PP_P__________ CP051997 6.79253 176.015 TS 45 0 7.43488 176.973 3 40 992 0 9 150 150 7.18497 176.000 TS 37 996 10 255
1997333N06194 1997 111 WP MM PAKA- 1997-12-08 18:00:00 TS 6.85000 175.683 40 992 tokyo main 2381 2335 OO_O__________ hurdat_epa CP051997 6.70000 175.500 TS 45 0 7.20000 176.500 3 40 992 0 9 150 150 0 7.10000 175.600 TS 40 994 10 259
1997333N06194 1997 111 WP MM PAKA- 1997-12-08 21:00:00 TS 6.76586 175.185 main 2335 2297 PP_P__________ CP051997 6.63501 175.013 TS 45 0 7.02015 175.878 3 42 991 0 9 175 175 7.03500 175.185 TS 42 992 9 262
1997333N06194 1997 111 WP MM PAKA- 1997-12-09 00:00:00 TS 6.71667 174.750 45 990 tokyo main 2297 2274 OO_O__________ hurdat_epa CP051997 6.60000 174.600 TS 45 0 6.90000 175.300 3 45 990 0 9 200 200 0 7.00000 174.800 TS 45 990 7 264
1997333N06194 1997 111 WP MM PAKA- 1997-12-09 03:00:00 TS 6.69325 174.455 main 2274 2252 PP_P__________ CP051997 6.58492 174.328 TS 45 0 6.81990 174.933 3 45 990 0 9 200 200 6.99995 174.485 TS 45 990 5 268
1997333N06194 1997 111 WP MM PAKA- 1997-12-09 06:00:00 TS 6.70000 174.217 45 990 tokyo main 2252 2238 OO_O__________ hurdat_epa CP051997 6.60000 174.100 TS 45 0 6.80000 174.700 3 45 990 0 9 200 200 0 7.00000 174.200 TS 45 990 5 274
1997333N06194 1997 111 WP MM PAKA- 1997-12-09 09:00:00 TS 6.72829 173.960 main 2238 2223 PP_P__________ CP051997 6.64246 173.823 TS 45 0 6.84240 174.573 3 47 987 0 9 240 200 6.95748 173.900 TS 47 987 6 277
1997333N06194 1997 111 WP MM PAKA- 1997-12-09 12:00:00 TS 6.76667 173.667 50 985 tokyo main 2224 2196 OO_O__________ hurdat_epa CP051997 6.70000 173.500 TS 45 0 6.90000 174.400 4 50 985 0 7 280 200 0 6.90000 173.600 STS 50 985 7 276
1997333N06194 1997 111 WP MM PAKA- 1997-12-09 15:00:00 TS 6.79667 173.295 main 2196 2168 PP_P__________ CP051997 6.75750 173.115 TS 45 0 6.90751 174.010 4 50 985 0 7 280 200 6.84248 173.300 STS 50 985 8 274
1997333N06194 1997 111 WP MM PAKA- 1997-12-09 18:00:00 TS 6.81667 172.883 50 985 tokyo main 2168 2141 OO_O__________ hurdat_epa CP051997 6.80000 172.700 TS 45 0 6.90000 173.500 4 50 985 0 7 280 200 0 6.80000 173.000 STS 50 985 8 272
1997333N06194 1997 111 WP MM PAKA- 1997-12-09 21:00:00 TS 6.81915 172.472 main 2141 2115 PP_P__________ CP051997 6.80749 172.292 TS 47 0 6.90006 172.943 4 50 985 0 7 280 200 6.78493 172.722 STS 50 985 8 270
1997333N06194 1997 111 WP MM PAKA- 1997-12-10 00:00:00 TS 6.81667 172.067 50 985 tokyo main 2115 2089 OO_O__________ hurdat_epa CP051997 6.80000 171.900 TS 50 0 6.90000 172.400 4 50 985 0 7 280 200 0 6.80000 172.400 STS 50 985 8 271
1997333N06194 1997 111 WP MM PAKA- 1997-12-10 03:00:00 TS 6.83121 171.687 main 2089 2063 PP_P__________ CP051997 6.80746 171.543 TS 55 0 6.90740 171.978 4 50 985 0 7 280 200 6.85001 171.973 STS 50 985 7 271
1997333N06194 1997 111 WP MM PAKA- 1997-12-10 06:00:00 TS 6.83333 171.317 50 985 tokyo main 2063 2045 OO_O__________ hurdat_epa CP051997 6.80000 171.200 TS 60 0 6.90000 171.600 4 50 985 0 7 280 200 0 6.90000 171.500 STS 50 985 7 267
1997333N06194 1997 111 WP MM PAKA- 1997-12-10 09:00:00 TS 6.79664 170.940 main 2038 2020 PP_P__________ CP051997 6.74997 170.850 TS 65 1 6.86495 171.208 4 52 982 0 7 285 200 6.91500 171.035 STS 52 982 8 264
1997333N06194 1997 111 WP MM PAKA- 1997-12-10 12:00:00 TS 6.75000 170.567 55 980 tokyo main 2020 1987 OO_O__________ hurdat_epa CP051997 6.70000 170.500 HU 70 1 6.80000 170.800 4 55 980 9 40 40 7 290 200 0 6.90000 170.600 STS 55 980 7 264
1997333N06194 1997 111 WP MM PAKA- 1997-12-10 15:00:00 TS 6.71998 170.196 main 1987 1970 PP_P__________ CP051997 6.69247 170.150 HU 75 1 6.69252 170.342 4 57 977 9 45 45 7 295 200 6.85744 170.235 STS 57 977 7 266
1997333N06194 1997 111 WP MM PAKA- 1997-12-10 18:00:00 TS 6.70000 169.833 60 975 tokyo main 1964 1948 OO_O__________ hurdat_epa CP051997 6.70000 169.800 HU 80 1 6.60000 169.900 4 60 975 9 50 50 7 300 200 0 6.80000 169.900 STS 60 975 7 267
1997333N06194 1997 111 WP MM PAKA- 1997-12-10 21:00:00 TS 6.68165 169.472 main 1948 1931 PP_P__________ CP051997 6.69249 169.442 HU 85 2 6.57747 169.520 4 62 972 9 52 52 7 312 200 6.74249 169.542 STS 62 972 7 269
1997333N06194 1997 111 WP MM PAKA- 1997-12-11 00:00:00 TS 6.68333 169.133 65 970 tokyo main 1926 1915 OO_O__________ hurdat_epa CP051997 6.70000 169.100 HU 90 2 6.60000 169.200 5 65 970 9 55 55 7 325 200 0 6.70000 169.200 T 65 970 6 272
1997333N06194 1997 111 WP MM PAKA- 1997-12-11 03:00:00 TS 6.70244 168.845 main 1910 1900 PP_P__________ CP051997 6.72744 168.807 HU 95 2 6.62744 168.950 5 65 970 9 55 55 7 325 200 6.67747 168.893 T 65 970 6 278
1997333N06194 1997 111 WP MM PAKA- 1997-12-11 06:00:00 TS 6.76400 168.552 65 970 tokyo main 1910 1895 OOOO__________ hurdat_epa CP051997 6.80000 168.500 HU 100 3 6.70000 168.700 5 65 970 9 55 55 7 325 200 0 6.70000 168.600 4 68 970 6.70000 168.600 T 65 970 7 286
1997333N06194 1997 111 WP MM PAKA- 1997-12-11 09:00:00 TS 6.89697 168.171 main 1900 1891 PPPP__________ CP051997 6.94256 168.085 HU 102 3 6.83502 168.358 5 67 967 9 57 57 7 337 200 6.91009 168.225 4 68 970 6.76998 168.300 T 67 967 8 292
1997333N06194 1997 111 WP MM PAKA- 1997-12-11 12:00:00 TS 7.05556 167.811 70 965 tokyo main 1902 1898 OOOO__________ hurdat_epa CP051997 7.10000 167.700 HU 105 3 7.00000 168.000 5 70 965 9 60 60 7 350 200 0 7.10000 167.900 4 68 970 6.90000 168.000 T 70 965 7 296
1997333N06194 1997 111 WP MM PAKA- 1997-12-11 15:00:00 TS 7.18563 167.580 main 1903 1899 PPPP__________ CP051997 7.19989 167.500 HU 107 3 7.14995 167.700 5 70 965 9 60 60 7 350 200 7.25743 167.650 4 72 970 7.09247 167.708 T 72 962 5 299
1997333N06194 1997 111 WP MM PAKA- 1997-12-11 18:00:00 TS 7.31429 167.343 70 965 tokyo main 1901 1899 OOOO__________ hurdat_epa CP051997 7.30000 167.300 HU 110 3 7.30000 167.400 5 70 965 9 60 60 7 350 200 0 7.40000 167.400 4 77 970 7.30000 167.400 T 75 960 7 296
1997333N06194 1997 111 WP MM PAKA- 1997-12-11 21:00:00 TS 7.46859 166.983 main 1909 1901 PPPP__________ CP051997 7.45005 166.923 HU 112 3 7.45749 167.057 5 70 962 9 65 65 7 362 200 7.55748 167.072 4 77 965 7.46499 167.057 T 75 960 8 292
1997333N06194 1997 111 WP MM PAKA- 1997-12-12 00:00:00 TS 7.61428 166.586 70 960 tokyo main 1904 1900 OOOO__________ hurdat_epa CP051997 7.60000 166.500 HU 115 4 7.60000 166.700 5 70 960 9 70 70 7 375 200 0 7.70000 166.700 4 77 960 7.60000 166.700 T 75 960 8 289
1997333N06194 1997 111 WP MM PAKA- 1997-12-12 03:00:00 TS 7.72282 166.224 main 1900 1897 PPPP__________ CP051997 7.70745 166.142 HU 115 4 7.70749 166.342 5 72 957 9 75 75 7 387 200 7.81500 166.300 4 77 960 7.70745 166.357 T 75 960 7 286
1997333N06194 1997 111 WP MM PAKA- 1997-12-12 06:00:00 TS 7.81429 165.871 75 955 tokyo main 1901 1892 OOOO__________ hurdat_epa CP051997 7.80000 165.800 HU 115 4 7.80000 166.000 5 75 955 9 80 80 7 400 200 0 7.90000 165.900 4 77 960 7.80000 166.000 T 75 960 7 285
1997333N06194 1997 111 WP MM PAKA- 1997-12-12 09:00:00 TS 7.89847 165.544 main 1893 1889 PPPP__________ CP051997 7.89241 165.472 HU 112 3 7.88486 165.730 5 77 952 9 80 80 7 400 200 7.94241 165.557 4 77 960 7.89241 165.630 T 75 960 7 285
1997333N06194 1997 111 WP MM PAKA- 1997-12-12 12:00:00 TS 8.00000 165.171 80 950 tokyo main 1890 1868 OOOO__________ hurdat_epa CP051997 8.00000 165.100 HU 110 3 8.00000 165.400 5 80 950 9 80 80 7 400 200 0 8.00000 165.200 4 77 960 8.00000 165.200 T 75 960 9 286
1997333N06194 1997 111 WP MM PAKA- 1997-12-12 15:00:00 TS 8.14534 164.696 main 1868 1856 PPPP__________ CP051997 8.13498 164.630 HU 107 3 8.20752 164.895 5 80 950 9 80 80 7 400 200 8.13491 164.787 4 77 960 8.13501 164.672 T 75 960 11 287
1997333N06194 1997 111 WP MM PAKA- 1997-12-12 18:00:00 TS 8.31429 164.157 80 950 tokyo main 1856 1834 OOOO__________ hurdat_epa CP051997 8.30000 164.100 HU 105 3 8.40000 164.300 5 80 950 9 80 80 7 400 200 0 8.30000 164.300 4 77 960 8.30000 164.100 T 75 960 11 287
1997333N06194 1997 111 WP MM PAKA- 1997-12-12 21:00:00 TS 8.47923 163.604 main 1835 1808 PPPP__________ CP051997 8.49242 163.565 HU 102 3 8.44994 163.707 5 80 950 9 80 80 7 400 200 8.44260 163.700 4 77 960 8.49239 163.557 T 75 960 12 287
1997333N06194 1997 111 WP MM PAKA- 1997-12-13 00:00:00 TS 8.65714 163.029 80 950 tokyo main 1809 1784 OOOO__________ hurdat_epa CP051997 8.70000 163.000 HU 100 3 8.50000 163.100 5 80 950 9 80 80 7 400 200 0 8.60000 163.100 4 77 960 8.70000 163.000 T 75 960 12 288
1997333N06194 1997 111 WP MM PAKA- 1997-12-13 03:00:00 TS 8.84523 162.464 main 1784 1762 PPPP__________ CP051997 8.89240 162.415 HU 97 3 8.66241 162.500 5 77 952 9 80 80 7 400 200 8.78466 162.672 4 77 960 8.89990 162.415 T 75 960 12 289
1997333N06194 1997 111 WP MM PAKA- 1997-12-13 06:00:00 TS 9.05714 161.871 75 955 tokyo main 1771 1746 OOOO__________ hurdat_epa CP051997 9.10000 161.800 HU 95 2 8.90000 161.900 5 75 955 9 80 80 7 400 200 0 9.00000 162.200 4 77 960 9.10000 161.800 T 75 960 13 291
1997333N06194 1997 111 WP MM PAKA- 1997-12-13 09:00:00 TS 9.30489 161.236 main 1742 1722 PPPP__________ CP051997 9.34984 161.172 HU 100 3 9.19232 161.315 5 75 955 9 85 85 7 425 215 9.24263 161.488 4 77 960 9.29992 161.157 T 75 960 14 291
1997333N06194 1997 111 WP MM PAKA- 1997-12-13 12:00:00 TS 9.55714 160.557 75 955 tokyo main 1731 1705 OOOO__________ hurdat_epa CP051997 9.60000 160.500 HU 105 3 9.50000 160.700 5 75 955 9 90 90 7 450 230 0 9.50000 160.700 4 77 960 9.50000 160.500 T 75 960 14 289
1997333N06194 1997 111 WP MM PAKA- 1997-12-13 15:00:00 TS 9.77551 159.861 main 1709 1684 PPPP__________ CP051997 9.80738 159.772 HU 110 3 9.75724 160.045 5 75 955 9 90 90 7 450 230 9.74961 160.022 4 77 960 9.69224 159.872 T 75 960 15 287
1997333N06194 1997 111 WP MM PAKA- 1997-12-13 18:00:00 TS 9.98571 159.114 75 955 tokyo main 1682 1660 OOOO__________ hurdat_epa CP051997 10.0000 159.000 HU 115 4 10.0000 159.300 5 75 955 9 90 90 7 450 230 0 10.0000 159.300 4 77 960 9.90000 159.200 T 75 960 16 286
1997333N06194 1997 111 WP MM PAKA- 1997-12-13 21:00:00 TS 10.2017 158.302 main 1660 1639 PPPP__________ CP051997 10.1923 158.215 HU 117 4 10.2501 158.415 5 77 952 9 95 95 7 475 240 10.2501 158.415 4 77 960 10.1425 158.422 T 77 957 17 285
1997333N06194 1997 111 WP MM PAKA- 1997-12-14 00:00:00 TS 10.4286 157.457 80 950 tokyo main 1639 1622 OOOO__________ hurdat_epa CP051997 10.4000 157.400 HU 120 4 10.5000 157.500 5 80 950 9 100 100 7 500 250 0 10.5000 157.500 4 77 960 10.4000 157.600 T 80 955 17 286
1997333N06194 1997 111 WP MM PAKA- 1997-12-14 03:00:00 TS 10.6741 156.630 main 1628 1617 PPPP__________ CP051997 10.6423 156.557 HU 122 4 10.7496 156.692 5 80 950 9 100 100 7 500 250 10.7496 156.692 4 82 955 10.6499 156.792 T 80 955 17 287
1997333N06194 1997 111 WP MM PAKA- 1997-12-14 06:00:00 TS 10.9286 155.800 80 950 tokyo main 1617 1611 OOOO__________ hurdat_epa CP051997 10.9000 155.700 HU 125 4 11.0000 155.900 5 80 950 9 100 100 7 500 250 0 11.0000 155.900 5 87 950 10.9000 156.000 T 80 955 17 287
1997333N06194 1997 111 WP MM PAKA- 1997-12-14 09:00:00 TS 11.1774 154.955 main 1622 1613 PPPP__________ CP051997 11.1424 154.835 HU 127 4 11.2574 155.050 5 82 945 9 105 105 7 525 260 11.2574 155.050 5 87 950 11.1573 155.242 T 82 952 17 287
1997333N06194 1997 111 WP MM PAKA- 1997-12-14 12:00:00 TS 11.4286 154.129 85 940 tokyo main 1619 1619 OOOO__________ hurdat_epa CP051997 11.4000 154.000 HU 130 4 11.5000 154.200 5 85 940 9 110 110 7 550 270 0 11.5000 154.200 5 87 950 11.4000 154.500 ST 85 950 16 288
1997333N06194 1997 111 WP MM PAKA- 1997-12-14 15:00:00 TS 11.6907 153.361 main 1636 1633 PPPP__________ CP051997 11.7071 153.250 HU 132 4 11.6998 153.385 5 90 935 9 115 115 7 575 285 11.6998 153.385 5 87 950 11.6072 153.757 ST 87 947 16 289
1997333N06194 1997 111 WP MM PAKA- 1997-12-14 18:00:00 TS 11.9429 152.600 95 930 tokyo main 1646 1646 OOOO__________ hurdat_epa CP051997 12.0000 152.500 HU 135 4 11.9000 152.600 5 95 930 9 120 120 7 600 300 0 11.9000 152.600 5 87 950 11.8000 153.000 ST 90 945 16 287
1997333N06194 1997 111 WP MM PAKA- 1997-12-14 21:00:00 TS 12.1721 151.773 main 1672 1664 PPPP__________ CP051997 12.2226 151.635 HU 137 5 12.1573 151.835 5 95 930 9 120 120 7 600 300 12.1573 151.835 5 92 945 11.9999 152.200 ST 90 945 17 285
1997333N06194 1997 111 WP MM PAKA- 1997-12-15 00:00:00 TS 12.3714 150.971 95 930 tokyo main 1672 1662 OOOO__________ hurdat_epa CP051997 12.4000 150.800 HU 140 5 12.4000 151.100 5 95 930 9 120 120 7 600 300 0 12.4000 151.100 5 97 940 12.2000 151.400 ST 90 945 15 284
1997333N06194 1997 111 WP MM PAKA- 1997-12-15 03:00:00 TS 12.5369 150.266 main 1666 1664 PPPP__________ CP051997 12.5572 150.112 HU 140 5 12.5648 150.385 5 95 930 9 120 120 7 600 300 12.5648 150.385 5 97 940 12.3997 150.642 ST 92 940 14 283
1997333N06194 1997 111 WP MM PAKA- 1997-12-15 06:00:00 TS 12.6857 149.614 95 930 tokyo main 1675 1672 OOOO__________ hurdat_epa CP051997 12.7000 149.500 HU 140 5 12.7000 149.700 5 95 930 9 120 120 7 600 300 0 12.7000 149.700 5 97 940 12.6000 149.900 ST 95 935 13 283
1997333N06194 1997 111 WP MM PAKA- 1997-12-15 09:00:00 TS 12.8406 148.965 main 1678 1677 PPPP__________ CP051997 12.8498 148.892 HU 140 5 12.8424 149.027 5 95 927 9 125 125 7 600 300 12.8424 149.027 5 97 940 12.8000 149.127 ST 92 940 13 284
1997333N06194 1997 111 WP MM PAKA- 1997-12-15 12:00:00 TS 13.0000 148.343 95 925 tokyo main 1694 1694 OOOO__________ hurdat_epa CP051997 13.0000 148.300 HU 140 5 13.0000 148.400 5 95 925 9 130 130 7 600 300 0 13.0000 148.400 5 97 940 13.0000 148.400 ST 90 945 12 286
1997333N06194 1997 111 WP MM PAKA- 1997-12-15 15:00:00 TS 13.1778 147.733 main 1714 1714 PPPP__________ CP051997 13.1575 147.678 HU 137 5 13.1998 147.828 5 95 925 9 130 130 7 600 300 13.1998 147.828 5 101 935 13.2148 147.763 ST 90 945 12 287
1997333N06194 1997 111 WP MM PAKA- 1997-12-15 18:00:00 TS 13.3429 147.171 95 925 tokyo main 1725 1725 OOOO__________ hurdat_epa CP051997 13.3000 147.100 HU 135 4 13.4000 147.300 5 95 925 9 130 130 7 600 300 0 13.4000 147.300 6 106 930 13.4000 147.200 ST 90 945 11 286
1997333N06194 1997 111 WP MM PAKA- 1997-12-15 21:00:00 TS 13.4709 146.675 main 1747 1747 PPPP__________ CP051997 13.4073 146.627 HU 132 4 13.5724 146.777 5 95 927 9 125 125 7 575 285 13.5724 146.777 6 106 932 13.5224 146.662 ST 90 945 9 284
1997333N06194 1997 111 WP MM PAKA- 1997-12-16 00:00:00 TS 13.5714 146.229 95 930 tokyo main 1759 1759 OOOO__________ hurdat_epa CP051997 13.5000 146.200 HU 130 4 13.7000 146.300 5 95 930 9 120 120 7 550 270 0 13.7000 146.300 6 106 935 13.6000 146.200 ST 90 945 9 283
1997333N06194 1997 111 WP MM PAKA- 1997-12-16 03:00:00 TS 13.6671 145.788 main 1772 1772 PPPP__________ CP051997 13.6150 145.728 HU 127 4 13.7799 145.885 5 92 932 9 115 115 7 525 260 13.7724 145.885 6 101 937 13.6573 145.835 ST 90 945 8 281
1997333N06194 1997 111 WP MM PAKA- 1997-12-16 06:00:00 TS 13.7286 145.386 90 935 tokyo main 1775 1775 OOOO__________ hurdat_epa CP051997 13.7000 145.300 HU 125 4 13.8000 145.500 5 90 935 9 110 110 7 500 250 0 13.8000 145.500 5 97 940 13.7000 145.500 ST 90 945 7 276
1997333N06194 1997 111 WP MM PAKA- 1997-12-16 09:00:00 TS 13.7392 145.037 main 1778 1778 PPPP__________ CP051997 13.7148 144.992 HU 127 4 13.7500 145.092 5 90 937 9 110 110 7 475 240 13.8075 145.092 5 97 940 13.7575 145.108 ST 90 945 7 270
1997333N06194 1997 111 WP MM PAKA- 1997-12-16 12:00:00 TS 13.7286 144.700 90 940 tokyo main 1782 1782 OOOO__________ hurdat_epa CP051997 13.7000 144.700 HU 130 4 13.7000 144.700 5 90 940 9 110 110 7 450 230 0 13.8000 144.700 5 97 940 13.8000 144.700 ST 90 945 7 270
1997333N06194 1997 111 WP MM PAKA- 1997-12-16 15:00:00 TS 13.7378 144.327 main 1788 1788 PPPP__________ CP051997 13.7000 144.322 HU 132 4 13.7498 144.358 5 90 940 9 110 110 7 450 230 13.7999 144.350 5 92 942 13.8150 144.292 ST 90 945 8 271
1997333N06194 1997 111 WP MM PAKA- 1997-12-16 18:00:00 TS 13.7429 143.929 90 940 tokyo main 1795 1795 OOOO__________ hurdat_epa CP051997 13.7000 143.900 HU 135 4 13.8000 144.000 5 90 940 9 110 110 7 450 230 0 13.8000 144.000 5 87 945 13.8000 143.900 ST 90 945 8 270
1997333N06194 1997 111 WP MM PAKA- 1997-12-16 21:00:00 TS 13.7317 143.509 main 1802 1797 PPPP__________ CP051997 13.7000 143.458 HU 137 5 13.7575 143.565 5 90 940 9 110 110 7 450 230 13.8074 143.623 5 87 945 13.7574 143.542 ST 90 945 8 268
1997333N06194 1997 111 WP MM PAKA- 1997-12-17 00:00:00 TS 13.7143 143.071 90 940 tokyo main 1797 1781 OOOO__________ hurdat_epa CP051997 13.7000 143.000 HU 140 5 13.7000 143.100 5 90 940 9 110 110 7 450 230 0 13.8000 143.200 5 87 945 13.7000 143.200 ST 90 945 9 267
1997333N06194 1997 111 WP MM PAKA- 1997-12-17 03:00:00 TS 13.6903 142.623 main 1781 1766 PPPP__________ CP051997 13.6925 142.535 HU 142 5 13.6850 142.643 5 90 937 9 110 110 7 450 240 13.7426 142.700 5 87 945 13.6348 142.880 ST 90 945 9 268
1997333N06194 1997 111 WP MM PAKA- 1997-12-17 06:00:00 TS 13.6857 142.186 90 935 tokyo main 1766 1749 OOOO__________ hurdat_epa CP051997 13.7000 142.100 HU 145 5 13.7000 142.200 5 90 935 9 110 110 7 450 250 0 13.7000 142.200 5 87 945 13.6000 142.500 ST 90 945 8 272
1997333N06194 1997 111 WP MM PAKA- 1997-12-17 09:00:00 TS 13.7142 141.784 main 1749 1723 PPPP__________ CP051997 13.7348 141.742 HU 147 5 13.7274 141.785 5 90 930 9 115 115 7 450 260 13.7199 141.778 5 87 945 13.6127 141.957 ST 92 940 8 277
1997333N06194 1997 111 WP MM PAKA- 1997-12-17 12:00:00 TS 13.7857 141.400 90 925 tokyo main 1723 1682 OOOO__________ hurdat_epa CP051997 13.8000 141.400 HU 150 5 13.8000 141.400 5 90 925 9 120 120 7 450 270 0 13.8000 141.400 5 87 945 13.7000 141.400 ST 95 935 8 284
1997333N06194 1997 111 WP MM PAKA- 1997-12-17 15:00:00 TS 13.9013 141.022 main 1682 1652 PPPP__________ CP051997 13.8849 141.015 HU 152 5 13.9423 141.058 5 95 922 9 125 125 7 450 270 13.9423 141.058 5 92 942 13.8848 140.978 ST 95 935 8 289
1997333N06194 1997 111 WP MM PAKA- 1997-12-17 18:00:00 TS 14.0429 140.629 100 920 tokyo main 1642 1603 OOOO__________ hurdat_epa CP051997 14.0000 140.600 HU 155 5 14.1000 140.700 5 100 920 9 130 130 7 450 270 0 14.1000 140.700 5 97 940 14.1000 140.600 ST 95 935 9 289
1997333N06194 1997 111 WP MM PAKA- 1997-12-17 21:00:00 TS 14.1743 140.182 main 1603 1563 PPPP__________ CP051997 14.1425 140.143 HU 157 5 14.2001 140.250 5 100 920 9 130 130 7 450 270 14.1925 140.257 5 97 940 14.2574 140.200 ST 95 935 9 288
1997333N06194 1997 111 WP MM PAKA- 1997-12-18 00:00:00 TS 14.3143 139.743 100 920 tokyo main 1553 1524 OOOO__________ hurdat_epa CP051997 14.3000 139.700 HU 160 5 14.3000 139.800 5 100 920 9 130 130 7 450 270 0 14.3000 139.800 5 97 940 14.4000 139.800 ST 95 935 8 291
1997333N06194 1997 111 WP MM PAKA- 1997-12-18 03:00:00 TS 14.4691 139.373 main 1526 1485 PPPP__________ CP051997 14.4498 139.342 HU 152 5 14.4348 139.442 5 100 920 9 130 130 7 450 270 14.4999 139.393 5 97 940 14.5499 139.407 ST 95 935 8 294
1997333N06194 1997 111 WP MM PAKA- 1997-12-18 06:00:00 TS 14.6286 139.014 100 920 tokyo main 1485 1446 OOOO__________ hurdat_epa CP051997 14.6000 139.000 HU 145 5 14.6000 139.100 5 100 920 9 130 130 7 450 270 0 14.7000 139.000 5 97 940 14.7000 139.000 ST 95 935 8 294
1997333N06194 1997 111 WP MM PAKA- 1997-12-18 09:00:00 TS 14.7892 138.620 main 1446 1406 PPPP__________ CP051997 14.7649 138.615 HU 142 5 14.7999 138.722 5 100 920 9 130 130 7 450 270 14.8074 138.607 5 97 940 14.8575 138.550 ST 92 937 8 291
1997333N06194 1997 111 WP MM PAKA- 1997-12-18 12:00:00 TS 14.9286 138.200 100 920 tokyo main 1406 1366 OOOO__________ hurdat_epa CP051997 14.9000 138.200 HU 140 5 15.0000 138.300 5 100 920 9 130 130 7 450 270 0 14.9000 138.200 5 97 940 15.0000 138.100 ST 90 940 9 285
1997333N06194 1997 111 WP MM PAKA- 1997-12-18 15:00:00 TS 15.0196 137.757 main 1366 1316 PPPP__________ CP051997 14.9499 137.765 HU 137 5 15.1726 137.800 5 100 920 9 130 130 7 450 270 15.0575 137.750 5 97 940 15.1074 137.692 ST 90 940 9 281
1997333N06194 1997 111 WP MM PAKA- 1997-12-18 18:00:00 TS 15.1000 137.300 100 920 tokyo main 1316 1276 OOOO__________ hurdat_epa CP051997 15.0000 137.300 HU 135 4 15.3000 137.300 5 100 920 9 130 130 7 450 270 0 15.2000 137.300 5 97 940 15.2000 137.300 ST 90 940 9 282
1997333N06194 1997 111 WP MM PAKA- 1997-12-18 21:00:00 TS 15.2036 136.830 main 1266 1227 PPPP__________ CP051997 15.1276 136.785 HU 132 4 15.3573 136.885 5 97 922 9 130 130 7 450 270 15.2499 136.892 5 92 942 15.3075 136.893 ST 90 940 9 285
1997333N06194 1997 111 WP MM PAKA- 1997-12-19 00:00:00 TS 15.3286 136.386 95 925 tokyo main 1227 1192 OOOO__________ hurdat_epa CP051997 15.3000 136.300 HU 130 4 15.4000 136.500 5 95 925 9 130 130 7 450 270 0 15.3000 136.500 5 87 945 15.4000 136.500 ST 90 940 8 288
1997333N06194 1997 111 WP MM PAKA- 1997-12-19 03:00:00 TS 15.4706 135.998 main 1192 1165 PPPP__________ CP051997 15.4924 135.920 HU 127 4 15.4700 136.085 5 92 927 9 125 125 7 437 270 15.4200 136.078 5 87 945 15.4349 136.142 ST 90 940 8 294
1997333N06194 1997 111 WP MM PAKA- 1997-12-19 06:00:00 TS 15.6429 135.657 90 930 tokyo main 1165 1141 OOOO__________ hurdat_epa CP051997 15.7000 135.600 HU 125 4 15.6000 135.700 5 90 930 9 120 120 7 425 270 0 15.6000 135.700 5 87 945 15.5000 135.800 ST 90 940 7 301
1997333N06194 1997 111 WP MM PAKA- 1997-12-19 09:00:00 TS 15.8495 135.356 main 1141 1119 PPPP__________ CP051997 15.8999 135.300 HU 122 4 15.8349 135.393 5 90 930 9 120 120 7 425 270 15.8422 135.457 5 82 947 15.6700 135.443 ST 87 942 7 307
1997333N06194 1997 111 WP MM PAKA- 1997-12-19 12:00:00 TS 16.0714 135.057 90 930 tokyo main 1123 1092 OOOO__________ hurdat_epa CP051997 16.1000 135.000 HU 120 4 16.1000 135.100 5 90 930 9 120 120 7 425 270 0 16.1000 135.200 4 77 950 15.9000 135.100 ST 85 945 8 304
1997333N06194 1997 111 WP MM PAKA- 1997-12-19 15:00:00 TS 16.2861 134.694 main 1092 1068 PPPP__________ CP051997 16.3075 134.643 HU 117 4 16.3150 134.750 5 90 932 9 115 115 7 412 270 16.3077 134.750 4 77 955 16.1500 134.785 ST 82 947 8 301
1997333N06194 1997 111 WP MM PAKA- 1997-12-19 18:00:00 TS 16.4857 134.343 90 935 tokyo main 1063 1049 OOOO__________ hurdat_epa CP051997 16.5000 134.300 HU 115 4 16.5000 134.400 5 90 935 9 110 110 7 400 270 0 16.5000 134.300 4 77 960 16.4000 134.500 T 80 950 7 302
1997333N06194 1997 111 WP MM PAKA- 1997-12-19 21:00:00 TS 16.6574 134.062 main 1054 1031 PPPP__________ CP051997 16.6574 134.027 HU 112 3 16.6575 134.062 5 87 937 9 105 105 7 387 270 16.7073 134.020 4 72 962 16.6074 134.242 T 77 952 6 304
1997333N06194 1997 111 WP MM PAKA- 1997-12-20 00:00:00 TS 16.8143 133.829 85 940 tokyo main 1031 1023 OOOO__________ hurdat_epa CP051997 16.8000 133.800 HU 110 3 16.8000 133.800 5 85 940 9 100 100 7 375 270 0 16.9000 133.800 4 68 965 16.8000 134.000 T 75 955 5 307
1997333N06194 1997 111 WP MM PAKA- 1997-12-20 03:00:00 TS 16.9768 133.610 main 1023 1011 PPPP__________ CP051997 16.9575 133.578 HU 102 3 16.9574 133.685 5 85 942 9 100 100 7 362 270 17.0425 133.535 4 68 965 17.0075 133.743 T 75 955 5 309
1997333N06194 1997 111 WP MM PAKA- 1997-12-20 06:00:00 TS 17.1286 133.429 85 945 tokyo main 1011 1008 OOOO__________ hurdat_epa CP051997 17.1000 133.400 HU 95 2 17.1000 133.600 5 85 945 9 100 100 7 350 270 0 17.2000 133.300 4 68 965 17.2000 133.500 T 75 955 4 312
1997333N06194 1997 111 WP MM PAKA- 1997-12-20 09:00:00 TS 17.2678 133.274 main 1014 1005 PPPP__________ CP051997 17.2150 133.277 HU 90 2 17.2075 133.408 5 82 947 9 95 95 7 337 270 17.4500 133.113 4 68 967 17.3575 133.285 T 72 957 4 315
1997333N06194 1997 111 WP MM PAKA- 1997-12-20 12:00:00 TS 17.3857 133.157 80 950 tokyo main 1011 1003 OOOO__________ hurdat_epa CP051997 17.3000 133.200 HU 85 2 17.3000 133.200 5 80 950 9 90 90 7 325 270 0 17.7000 133.000 4 68 970 17.5000 133.100 T 70 960 3 319
1997333N06194 1997 111 WP MM PAKA- 1997-12-20 15:00:00 TS 17.4800 133.086 main 1009 1000 PPPP__________ CP051997 17.3575 133.150 HU 75 1 17.4000 133.035 5 77 955 9 85 85 7 312 270 17.8799 133.015 4 63 972 17.6500 132.950 T 67 965 2 321
1997333N06194 1997 111 WP MM PAKA- 1997-12-20 18:00:00 TS 17.5571 133.014 75 960 tokyo main 1007 998 OOOO__________ hurdat_epa CP051997 17.4000 133.100 HU 65 1 17.5000 132.900 5 75 960 9 80 80 7 300 270 0 18.0000 133.000 3 58 975 17.8000 132.800 T 65 970 2 310
1997333N06194 1997 111 WP MM PAKA- 1997-12-20 21:00:00 TS 17.6382 132.887 main 998 994 PPPP__________ CP051997 17.4575 133.015 HU 55 0 17.6000 132.800 5 70 965 9 75 75 7 285 270 18.0727 132.750 3 53 980 17.9650 132.600 T 62 972 3 299
1997333N06194 1997 111 WP MM PAKA- 1997-12-21 00:00:00 TS 17.7000 132.743 65 970 tokyo main 984 975 OOOO__________ hurdat_epa CP051997 17.5000 132.900 TS 45 0 17.7000 132.700 5 65 970 9 70 70 9 270 270 0 18.1000 132.500 3 48 985 18.1000 132.400 STS 60 975 3 290
1997333N06194 1997 111 WP MM PAKA- 1997-12-21 03:00:00 TS 17.7289 132.619 main 975 965 PPPP__________ CP051997 17.5075 132.757 TS 42 0 17.8000 132.572 5 60 975 9 60 60 9 255 255 18.1074 132.485 3 46 987 18.1650 132.242 STS 55 980 2 280
1997333N06194 1997 111 WP MM PAKA- 1997-12-21 06:00:00 TS 17.7429 132.486 55 980 tokyo main 965 951 OOOO__________ hurdat_epa CP051997 17.5000 132.600 TS 40 0 17.9000 132.400 4 55 980 9 50 50 9 240 240 0 18.1000 132.500 2 44 990 18.2000 132.100 STS 50 985 3 277
1997333N06194 1997 111 WP MM PAKA- 1997-12-21 09:00:00 TS 17.7632 132.335 main 951 941 PPPP__________ CP051997 17.4925 132.450 TS 40 0 18.0224 132.188 4 52 982 9 9 225 225 18.0999 132.410 2 41 992 18.2500 131.950 STS 45 989 3 275
1997333N06194 1997 111 WP MM PAKA- 1997-12-21 12:00:00 TS 17.7667 132.170 50 985 tokyo main 941 922 OOOO__________ hurdat_epa CP051997 17.5000 132.300 TS 40 0 18.1000 131.900 4 50 985 0 9 210 210 0 18.1000 132.200 2 38 995 18.3000 131.800 TS 40 994 4 270
1997333N06194 1997 111 WP MM PAKA- 1997-12-21 15:00:00 TS 17.7628 131.944 main 913 903 PPPP__________ CP051997 17.5425 132.143 TS 35 0 18.0428 131.455 4 47 988 0 9 180 180 18.0703 131.785 2 38 995 18.3500 131.650 TS 35 997 4 269
1997333N06194 1997 111 WP MM PAKA- 1997-12-21 18:00:00 TS 17.7625 131.754 45 992 tokyo main 903 894 OOOO__________ hurdat_epa CP051997 17.6000 132.000 TD 30 -1 18.0000 131.100 3 45 992 0 9 150 150 0 18.1000 131.400 2 38 995 18.4000 131.500 TD 30 1000 2 275
1997333N06194 1997 111 WP MM PAKA- 1997-12-21 21:00:00 TS 17.7854 131.690 main 894 894 PPP___________ CP051997 17.6425 131.892 TD 27 -1 18.1199 131.090 3 40 996 0 9 135 135 18.2598 131.267 2 33 997 TD 1 316
1997333N06194 1997 111 WP MM PAKA- 1997-12-22 00:00:00 TS 17.8524 131.662 35 1000 tokyo main 899 890 OOO___________ hurdat_epa CP051997 17.7000 131.800 TD 25 -1 18.3000 131.200 3 35 1000 0 9 120 120 0 18.5000 131.300 1 29 1000 1 324
1997333N06194 1997 111 WP MM PAKA- 1997-12-22 03:00:00 TS 17.9045 131.600 main 890 887 PP____________ CP051997 17.7700 131.700 TD 22 -1 18.4425 131.200 3 1002 0 9 1 3 325
1997333N06194 1997 111 WP MM PAKA- 1997-12-22 06:00:00 TS 18.0750 131.500 1004 tokyo main 892 889 OO____________ hurdat_epa CP051997 17.9000 131.600 TD 20 -1 18.6000 131.200 2 1004 0 0 0 5 337
1997333N06194 1997 111 WP MM PAKA- 1997-12-22 09:00:00 TS 18.3383 131.409 main 895 895 PP____________ CP051997 18.1225 131.500 TD 20 -1 18.7700 131.228 2 1005 0 0 6 347
1997333N06194 1997 111 WP MM PAKA- 1997-12-22 12:00:00 TS 18.7000 131.350 1006 tokyo main 920 920 OO____________ hurdat_epa CP051997 18.4000 131.400 TD 20 -1 19.0000 131.300 2 1006 0 0 0 10 2
1997333N06194 1997 111 WP MM PAKA- 1997-12-22 15:00:00 TS 19.3501 131.457 main 974 974 _P____________ CP051997 TD -1 19.3501 131.457 2 1006 0 0 10 13
1997333N06194 1997 111 WP MM PAKA- 1997-12-22 18:00:00 TS 19.7000 131.600 1006 tokyo main 988 988 _O____________ 19.7000 131.600 2 1006 0 0 0 6 16
1997333N06194 1997 111 WP MM PAKA- 1997-12-22 21:00:00 TS 19.9375 131.635 main 991 991 _P____________ 19.9375 131.635 2 1008 0 0 4 0
1997333N06194 1997 111 WP MM PAKA- 1997-12-23 00:00:00 TS 20.1000 131.600 1010 tokyo main 994 _O____________ 20.1000 131.600 2 1010 0 0 0 3 346

IBTrACS Databaseについて

本データベースは、米国NOAAが公開する1842年以降の世界の熱帯低気圧のベストトラックデータアーカイブInternational Best Track Archive for Climate Stewardship (IBTrACS)を、ウェブで閲覧しやすい形式に変換したものです。

最終更新日:2021-10-08